Time;durP1;ratioP1;P1;durP2;ratioP2;P2;SDS_P1;SDS_P2;PMS_P1;PMS_P2;Temp;Humidity;BMP_temperature;BMP_pressure;BME280_temperature;BME280_humidity;BME280_pressure;Samples;Min_cycle;Max_cycle;Signal;HPM_P1;HPM_P2
2024/02/02 00:02:08;;;;;;;;;36.00;31.00;;;;;4.25;100.00;100406.78;6307575;20;2860805;-44
2024/02/02 00:04:37;;;;;;;;;40.50;34.00;;;;;4.07;100.00;100414.25;6276558;20;2866002;-45
2024/02/02 00:07:06;;;;;;;;;49.00;40.50;;;;;3.89;100.00;100409.38;6277157;20;2853394;-45
2024/02/02 00:09:37;;;;;;;;;50.00;38.00;;;;;4.01;100.00;100411.75;6272245;20;3636806;-44
2024/02/02 00:12:10;;;;;;;;;50.00;41.67;;;;;3.91;100.00;100410.22;6308258;20;2864894;-43
2024/02/02 00:14:41;;;;;;;;;50.33;40.00;;;;;3.81;100.00;100411.31;6304452;20;3602493;-44
2024/02/02 00:17:10;;;;;;;;;42.67;34.33;;;;;3.77;100.00;100418.50;6303839;20;2871289;-45
2024/02/02 00:19:40;;;;;;;;;42.33;38.00;;;;;3.72;100.00;100423.03;6307746;20;2850390;-43
2024/02/02 00:22:10;;;;;;;;;45.33;40.00;;;;;3.66;100.00;100416.06;6307950;20;2848340;-44
2024/02/02 00:24:39;;;;;;;;;40.67;38.33;;;;;3.68;100.00;100421.34;6305791;20;2869133;-45
2024/02/02 00:27:09;;;;;;;;;48.33;38.67;;;;;3.71;100.00;100415.94;6305974;20;2863963;-44
2024/02/02 00:29:40;;;;;;;;;49.00;39.00;;;;;3.62;100.00;100424.13;6303732;20;2853486;-46
2024/02/02 00:32:08;;;;;;;;;43.00;37.50;;;;;3.61;100.00;100415.28;6305237;20;2862837;-44
2024/02/02 00:34:37;;;;;;;;;49.50;41.00;;;;;3.59;100.00;100408.28;6274667;20;2849238;-44
2024/02/02 00:37:07;;;;;;;;;49.33;38.33;;;;;3.71;100.00;100415.94;6276947;20;3621094;-44
2024/02/02 00:39:38;;;;;;;;;41.67;36.00;;;;;3.82;100.00;100418.38;6306796;20;3614832;-44
2024/02/02 00:42:08;;;;;;;;;40.67;37.33;;;;;3.76;100.00;100414.06;6306985;20;2862795;-44
2024/02/02 00:44:37;;;;;;;;;38.50;29.50;;;;;3.75;100.00;100425.63;6306429;20;2851383;-44
2024/02/02 00:47:06;;;;;;;;;45.50;40.50;;;;;3.65;100.00;100416.97;6276729;20;2862787;-44
2024/02/02 00:49:35;;;;;;;;;45.67;38.00;;;;;3.76;100.00;100423.81;6275498;20;3623202;-44
2024/02/02 00:52:05;;;;;;;;;49.00;39.00;;;;;3.85;100.00;100420.97;6307216;20;3634772;-44
2024/02/02 00:54:34;;;;;;;;;43.00;38.00;;;;;3.76;100.00;100422.03;6304516;20;2858673;-43
2024/02/02 00:57:04;;;;;;;;;49.33;38.67;;;;;3.89;100.00;100433.28;6303107;20;3623213;-44
2024/02/02 00:59:34;;;;;;;;;45.67;39.00;;;;;3.80;100.00;100428.19;6308534;20;2864964;-44
2024/02/02 01:02:03;;;;;;;;;51.00;42.00;;;;;3.88;100.00;100423.56;6304287;20;2854486;-44
2024/02/02 01:04:32;;;;;;;;;46.33;38.67;;;;;3.74;100.00;100432.72;6268295;20;2865962;-46
2024/02/02 01:07:01;;;;;;;;;49.50;41.50;;;;;3.84;100.00;100428.06;6304109;20;2836775;-44
2024/02/02 01:09:31;;;;;;;;;42.00;38.00;;;;;3.85;100.00;100420.97;6276371;20;2869196;-44
2024/02/02 01:12:01;;;;;;;;;40.33;37.00;;;;;3.98;100.00;100417.13;6307500;20;2874420;-45
2024/02/02 01:14:30;;;;;;;;;44.67;38.33;;;;;3.72;100.00;100418.59;6304398;20;2867057;-44
2024/02/02 01:17:00;;;;;;;;;49.00;37.67;;;;;3.93;100.00;100425.22;6303602;20;3627365;-45
2024/02/02 01:19:29;;;;;;;;;44.67;38.00;;;;;3.90;100.00;100427.06;6304518;20;2867017;-47
2024/02/02 01:21:58;;;;;;;;;45.00;40.00;;;;;3.86;100.00;100420.06;6306115;20;2849276;-43
2024/02/02 01:24:27;;;;;;;;;35.50;34.50;;;;;3.92;100.00;100425.22;6274318;20;2860698;-47
2024/02/02 01:26:56;;;;;;;;;35.00;33.00;;;;;3.89;100.00;100427.97;6275810;20;2856570;-44
2024/02/02 01:29:25;;;;;;;;;37.50;29.50;;;;;3.91;100.00;100428.81;6273697;20;2867155;-45
2024/02/02 01:31:55;;;;;;;;;47.00;37.00;;;;;3.99;100.00;100416.22;6274579;20;3630567;-45
2024/02/02 01:34:23;;;;;;;;;42.00;35.50;;;;;3.92;100.00;100419.91;6302394;20;2871144;-45
2024/02/02 01:36:53;;;;;;;;;37.50;30.50;;;;;3.77;100.00;100421.16;6275401;20;2857582;-44
2024/02/02 01:39:22;;;;;;;;;36.33;34.67;;;;;3.82;100.00;100429.00;6274650;20;2866964;-44
2024/02/02 01:41:52;;;;;;;;;41.67;36.33;;;;;3.64;100.00;100419.66;6301030;20;3614891;-46
2024/02/02 01:44:21;;;;;;;;;46.00;37.00;;;;;3.59;100.00;100425.06;6302716;20;2581553;-45
2024/02/02 01:46:50;;;;;;;;;43.33;37.00;;;;;3.59;100.00;100434.81;6303951;20;3616930;-45
2024/02/02 01:49:20;;;;;;;;;41.67;37.67;;;;;3.53;100.00;100417.25;6305132;20;2866972;-45
2024/02/02 01:51:49;;;;;;;;;39.00;34.50;;;;;3.64;100.00;100427.63;6304588;20;2858640;-46
2024/02/02 01:54:18;;;;;;;;;44.00;33.50;;;;;3.42;100.00;100419.22;6271222;20;2865903;-44
2024/02/02 01:56:47;;;;;;;;;42.00;34.50;;;;;3.60;100.00;100429.47;6272097;20;2864946;-46
2024/02/02 01:59:17;;;;;;;;;50.33;36.00;;;;;3.76;100.00;100429.13;6273275;20;3638845;-44
2024/02/02 02:01:46;;;;;;;;;41.33;35.00;;;;;3.71;100.00;100427.47;6300086;20;2876383;-44
2024/02/02 02:04:16;;;;;;;;;43.00;37.00;;;;;3.66;100.00;100424.03;6302534;20;2868241;-44
2024/02/02 02:06:46;;;;;;;;;38.00;32.67;;;;;3.65;100.00;100432.03;6303432;20;2860721;-44
2024/02/02 02:09:14;;;;;;;;;41.00;37.00;;;;;3.57;100.00;100424.22;6308680;20;2855504;-45
2024/02/02 02:11:44;;;;;;;;;42.00;34.00;;;;;3.56;100.00;100425.13;6276813;20;2871562;-44
2024/02/02 02:14:13;;;;;;;;;40.33;34.00;;;;;3.45;100.00;100406.78;6276849;20;2875842;-46
2024/02/02 02:16:43;;;;;;;;;40.67;34.00;;;;;3.67;100.00;100415.16;6310319;20;2862898;-44
2024/02/02 02:19:14;;;;;;;;;38.33;29.00;;;;;3.47;100.00;100417.34;6309519;20;2857697;-43
2024/02/02 02:21:44;;;;;;;;;44.00;33.00;;;;;3.80;100.00;100409.59;6307259;20;2871220;-44
2024/02/02 02:24:13;;;;;;;;;39.00;31.00;;;;;3.91;100.00;100418.19;6309887;20;2858771;-44
2024/02/02 02:26:44;;;;;;;;;36.50;32.00;;;;;3.72;100.00;100423.03;6274901;20;2500349;-44
2024/02/02 02:29:14;;;;;;;;;41.33;35.00;;;;;3.62;100.00;100417.03;6279303;20;2867101;-44
2024/02/02 02:31:55;;;;;;;;;37.50;29.50;;;;;3.57;100.00;100421.56;6308618;20;2843147;-44
2024/02/02 02:34:27;;;;;;;;;35.50;33.00;;;;;3.52;100.00;100420.78;6277290;20;2855626;-44
2024/02/02 02:36:56;;;;;;;;;28.50;24.50;;;;;3.55;100.00;100425.16;6276267;20;2500284;-50
2024/02/02 02:39:23;;;;;;;;;34.50;32.00;;;;;3.66;100.00;100410.75;6276455;20;2500392;-44
2024/02/02 02:41:52;;;;;;;;;36.50;31.50;;;;;3.57;100.00;100421.56;6276226;20;2851423;-43
2024/02/02 02:44:20;;;;;;;;;36.50;30.00;;;;;3.45;100.00;100416.50;6276105;20;2500373;-44
2024/02/02 02:46:51;;;;;;;;;34.00;30.50;;;;;3.46;100.00;100415.63;6276912;20;2840921;-44
2024/02/02 02:49:20;;;;;;;;;35.50;33.00;;;;;3.49;100.00;100419.06;6277207;20;2844080;-45
2024/02/02 02:51:48;;;;;;;;;27.50;27.50;;;;;3.58;100.00;100419.78;6277660;20;2500415;-44
2024/02/02 02:54:16;;;;;;;;;33.00;27.00;;;;;3.61;100.00;100420.59;6276836;20;2500259;-44
2024/02/02 02:56:45;;;;;;;;;39.00;30.50;;;;;3.48;100.00;100424.44;6274341;20;2868184;-45
2024/02/02 02:59:16;;;;;;;;;40.50;29.50;;;;;3.66;100.00;100420.47;6275189;20;2883654;-44
2024/02/02 03:01:45;;;;;;;;;32.50;29.00;;;;;3.42;100.00;100424.53;6269933;20;2850535;-44
2024/02/02 03:04:13;;;;;;;;;31.00;26.00;;;;;3.53;100.00;100417.25;6268387;20;2500330;-44
2024/02/02 03:06:41;;;;;;;;;34.00;27.50;;;;;3.37;100.00;100410.47;6269566;20;2500438;-44
2024/02/02 03:09:11;;;;;;;;;30.50;26.00;;;;;3.45;100.00;100424.47;6270789;20;2500311;-44
2024/02/02 03:11:40;;;;;;;;;28.50;26.50;;;;;3.41;100.00;100422.78;6274969;20;2857611;-44
2024/02/02 03:14:09;;;;;;;;;33.00;27.00;;;;;3.41;100.00;100422.78;6275435;20;2858661;-44
2024/02/02 03:16:38;;;;;;;;;32.50;28.00;;;;;3.54;100.00;100426.94;6277771;20;2858613;-45
2024/02/02 03:19:06;;;;;;;;;33.50;29.50;;;;;3.47;100.00;100422.66;6273484;20;2848665;-45
2024/02/02 03:21:35;;;;;;;;;41.50;31.00;;;;;3.64;100.00;100436.47;6277172;20;2873217;-44
2024/02/02 03:24:06;;;;;;;;;36.33;28.33;;;;;3.34;100.00;100437.09;6276758;20;2872277;-43
2024/02/02 03:26:35;;;;;;;;;31.00;28.00;;;;;3.39;100.00;100438.75;6307947;20;2846153;-43
2024/02/02 03:29:03;;;;;;;;;29.50;25.50;;;;;3.44;100.00;100442.19;6272263;20;2500332;-45
2024/02/02 03:31:31;;;;;;;;;26.00;26.00;;;;;3.48;100.00;100440.34;6269312;20;2500305;-44
2024/02/02 03:34:00;;;;;;;;;32.00;27.50;;;;;3.58;100.00;100438.38;6275361;20;2847152;-45
2024/02/02 03:36:28;;;;;;;;;25.50;25.50;;;;;3.59;100.00;100445.44;6276248;20;2830401;-43
2024/02/02 03:38:56;;;;;;;;;27.50;24.50;;;;;3.50;100.00;100454.44;6275017;20;2859166;-43
2024/02/02 03:41:26;;;;;;;;;39.67;32.67;;;;;3.36;100.00;100456.50;6275613;20;2875370;-43
2024/02/02 03:43:56;;;;;;;;;35.33;32.33;;;;;3.24;100.00;100462.94;6304579;20;2864887;-43
2024/02/02 03:46:25;;;;;;;;;28.50;22.00;;;;;3.41;100.00;100470.56;6304314;20;2846205;-44
2024/02/02 03:48:54;;;;;;;;;23.67;21.67;;;;;3.56;100.00;100470.28;6276795;20;3558639;-44
2024/02/02 03:51:23;;;;;;;;;34.50;26.00;;;;;3.47;100.00;100465.13;6278899;20;2850341;-43
2024/02/02 03:53:51;;;;;;;;;33.00;25.00;;;;;3.56;100.00;100449.03;6275248;20;3580442;-44
2024/02/02 03:56:20;;;;;;;;;30.50;28.00;;;;;3.43;100.00;100461.69;6267984;20;2847156;-43
2024/02/02 03:58:48;;;;;;;;;23.50;20.00;;;;;3.55;100.00;100462.31;6275547;20;2500364;-44
2024/02/02 04:01:19;;;;;;;;;23.40;21.40;;;;;3.44;100.00;100454.59;6174419;20;3559720;-45
2024/02/02 04:03:48;;;;;;;;;20.00;19.00;;;;;3.30;100.00;100450.41;6305566;20;3554423;-43
2024/02/02 04:06:16;;;;;;;;;23.00;19.00;;;;;3.47;100.00;100459.81;6277025;20;2829478;-43
2024/02/02 04:08:44;;;;;;;;;21.00;19.00;;;;;3.42;100.00;100464.34;6274128;20;2500338;-43
2024/02/02 04:11:12;;;;;;;;;20.33;16.00;;;;;3.37;100.00;100468.88;6276024;20;3557711;-45
2024/02/02 04:13:42;;;;;;;;;24.00;22.00;;;;;3.21;100.00;100463.88;6304462;20;3567987;-44
2024/02/02 04:16:10;;;;;;;;;32.00;24.00;;;;;3.23;100.00;100477.97;6278643;20;2853399;-46
2024/02/02 04:18:38;;;;;;;;;21.00;16.67;;;;;3.27;100.00;100479.69;6274491;20;3552476;-44
2024/02/02 04:21:07;;;;;;;;;27.00;22.67;;;;;3.22;100.00;100492.16;6275052;20;3583579;-43
2024/02/02 04:23:35;;;;;;;;;34.00;31.00;;;;;3.12;100.00;100495.88;6274089;20;2500317;-44
2024/02/02 04:26:05;;;;;;;;;52.67;36.67;;;;;3.02;100.00;100483.69;6276360;20;3641960;-44
2024/02/02 04:28:32;;;;;;;;;15.00;15.00;;;;;3.27;100.00;100476.16;6309251;20;2814862;-46
2024/02/02 04:31:01;;;;;;;;;20.00;18.00;;;;;3.17;100.00;100488.72;6276438;20;2831557;-44
2024/02/02 04:33:29;;;;;;;;;19.33;16.67;;;;;3.26;100.00;100479.69;6276684;20;3564831;-44
2024/02/02 04:35:58;;;;;;;;;19.67;19.00;;;;;3.38;100.00;100476.81;6278642;20;3566902;-44
2024/02/02 04:38:27;;;;;;;;;20.33;18.00;;;;;3.55;99.10;100472.94;6277212;20;3563875;-43
2024/02/02 04:40:55;;;;;;;;;25.00;21.00;;;;;3.42;97.92;100478.53;6276708;20;2826363;-44
2024/02/02 04:43:23;;;;;;;;;33.33;25.67;;;;;3.49;96.75;100480.13;6275552;20;3584683;-45
2024/02/02 04:45:52;;;;;;;;;22.67;20.67;;;;;3.51;96.96;100475.66;6275296;20;3566918;-43
2024/02/02 04:48:20;;;;;;;;;24.50;18.50;;;;;3.60;96.25;100482.56;6275953;20;2500350;-44
2024/02/02 04:50:49;;;;;;;;;21.67;20.67;;;;;3.44;97.72;100478.47;6274107;20;3566919;-44
2024/02/02 04:53:17;;;;;;;;;18.00;18.00;;;;;3.42;96.88;100473.22;6277233;20;3560711;-43
2024/02/02 04:55:45;;;;;;;;;18.50;16.50;;;;;3.56;95.89;100475.59;6308635;20;2828894;-43
2024/02/02 04:58:13;;;;;;;;;17.00;13.00;;;;;3.42;96.94;100477.63;6276529;20;2794224;-44
2024/02/02 05:00:44;;;;;;;;;16.40;13.80;;;;;3.62;95.58;100479.88;6300586;20;2802919;-45
2024/02/02 05:03:13;;;;;;;;;17.33;14.33;;;;;3.42;96.29;100474.97;6274979;20;3548268;-44
2024/02/02 05:05:42;;;;;;;;;18.33;12.33;;;;;3.42;96.52;100477.63;6306776;20;3530479;-44
2024/02/02 05:08:10;;;;;;;;;17.00;13.00;;;;;3.26;97.07;100480.56;6305866;20;2798202;-44
2024/02/02 05:10:38;;;;;;;;;21.00;15.00;;;;;3.28;96.87;100480.53;6278823;20;3558615;-45
2024/02/02 05:13:07;;;;;;;;;8.25;8.25;;;;;3.25;98.05;100477.97;6325478;20;1823241;-44
2024/02/02 05:15:35;;;;;;;;;23.00;17.50;;;;;3.26;97.45;100483.22;6311355;20;2822302;-44
2024/02/02 05:18:06;;;;;;;;;27.00;24.50;;;;;3.22;97.08;100486.84;6275891;20;2844058;-46
2024/02/02 05:20:35;;;;;;;;;28.33;22.67;;;;;2.96;97.58;100483.78;6276048;20;3578405;-44
2024/02/02 05:23:04;;;;;;;;;19.33;14.67;;;;;2.90;100.00;100489.19;6271386;20;3556538;-45
2024/02/02 05:25:35;;;;;;;;;16.80;13.40;;;;;2.75;100.00;100485.91;6328285;20;2806669;-44
2024/02/02 05:28:04;;;;;;;;;20.50;14.00;;;;;2.67;100.00;100487.81;6273901;20;2804509;-47
2024/02/02 05:30:33;;;;;;;;;18.33;15.67;;;;;2.54;100.00;100492.44;6275179;20;3560725;-48
2024/02/02 05:33:01;;;;;;;;;20.00;16.00;;;;;2.58;100.00;100487.94;6306522;20;2821149;-44
2024/02/02 05:35:31;;;;;;;;;16.60;13.80;;;;;2.59;100.00;100487.94;6299941;20;2820072;-44
2024/02/02 05:38:00;;;;;;;;;22.67;15.00;;;;;2.43;100.00;100483.78;6276400;20;3571080;-44
2024/02/02 05:40:28;;;;;;;;;25.00;14.00;;;;;2.66;100.00;100488.72;6304761;20;2814898;-44
2024/02/02 05:43:00;;;;;;;;;21.50;20.00;;;;;2.68;100.00;100499.28;6306480;20;2825416;-46
2024/02/02 05:45:29;;;;;;;;;24.67;20.00;;;;;2.74;100.00;100505.38;6275227;20;3558618;-45
2024/02/02 05:47:58;;;;;;;;;24.67;18.00;;;;;2.64;100.00;100506.44;6273603;20;3579416;-45
2024/02/02 05:50:28;;;;;;;;;22.00;21.00;;;;;2.32;100.00;100507.78;6272400;20;3555503;-44
2024/02/02 05:52:56;;;;;;;;;27.00;21.33;;;;;2.17;100.00;100505.38;6273267;20;3562753;-44
2024/02/02 05:55:24;;;;;;;;;24.50;22.50;;;;;2.52;100.00;100511.91;6304796;20;2500428;-44
2024/02/02 05:57:53;;;;;;;;;19.67;17.67;;;;;2.40;100.00;100508.56;6273558;20;3559737;-45
2024/02/02 06:00:24;;;;;;;;;20.60;15.80;;;;;2.51;100.00;100512.81;6327855;20;2821127;-45
2024/02/02 06:02:53;;;;;;;;;18.00;12.33;;;;;2.57;100.00;100515.38;6273505;20;2797219;-45
2024/02/02 06:05:21;;;;;;;;;23.50;23.50;;;;;2.36;100.00;100514.78;6308263;20;2834643;-44
2024/02/02 06:07:50;;;;;;;;;17.60;13.00;;;;;2.48;100.00;100523.47;6299456;20;2805479;-44
2024/02/02 06:10:19;;;;;;;;;10.75;9.00;;;;;2.89;97.38;100535.19;6296237;20;1819125;-45
2024/02/02 06:12:47;;;;;;;;;12.50;9.00;;;;;3.26;95.03;100538.94;6308406;20;2764890;-44
2024/02/02 06:15:14;;;;;;;;;6.67;6.67;;;;;3.36;93.25;100546.75;6294540;20;1815970;-44
2024/02/02 06:17:43;;;;;;;;;10.50;9.25;;;;;3.37;91.89;100543.19;6294457;20;1821247;-46
2024/02/02 06:20:12;;;;;;;;;10.00;6.00;;;;;3.40;92.69;100551.13;6309043;20;2763946;-44
2024/02/02 06:22:43;;;;;;;;;13.67;8.17;;;;;3.34;93.06;100559.19;6349381;20;1804450;-44
2024/02/02 06:25:12;;;;;;;;;7.00;7.00;;;;;3.47;92.64;100560.69;6294929;20;1819029;-47
2024/02/02 06:27:40;;;;;;;;;9.00;6.00;;;;;3.37;92.74;100561.75;6305704;20;2748198;-48
2024/02/02 06:30:11;;;;;;;;;10.60;6.40;;;;;3.36;92.66;100565.34;6331404;20;2754471;-44
2024/02/02 06:32:40;;;;;;;;;14.00;10.00;;;;;3.32;93.85;100563.63;6305376;20;2775503;-46
2024/02/02 06:35:08;;;;;;;;;14.00;11.00;;;;;3.11;94.04;100565.78;6273639;20;2774208;-44
2024/02/02 06:37:36;;;;;;;;;14.00;11.00;;;;;3.27;93.83;100569.91;6273523;20;2788954;-47
2024/02/02 06:40:04;;;;;;;;;14.00;11.00;;;;;3.29;94.26;100568.13;6274640;20;2796190;-45
2024/02/02 06:42:34;;;;;;;;;18.20;13.20;;;;;3.17;94.74;100564.78;6301523;20;2821356;-44
2024/02/02 06:45:02;;;;;;;;;17.00;11.00;;;;;3.17;94.11;100563.00;6273041;20;2820156;-45
2024/02/02 06:47:30;;;;;;;;;16.00;13.00;;;;;3.37;93.57;100575.03;6273122;20;2796144;-46
2024/02/02 06:49:58;;;;;;;;;14.50;9.50;;;;;3.66;96.54;100575.41;6274040;20;2771079;-46
2024/02/02 06:52:27;;;;;;;;;9.50;9.50;;;;;3.63;94.20;100572.78;6275526;20;2760688;-44
2024/02/02 06:54:56;;;;;;;;;16.20;12.20;;;;;3.46;93.39;100573.09;6328558;20;2794046;-45
2024/02/02 06:57:31;;;;;;;;;14.40;12.20;;;;;3.47;92.41;100579.28;6307186;20;2796170;-44
2024/02/02 07:00:00;;;;;;;;;10.00;7.00;;;;;3.69;92.31;100580.66;6280428;20;2758737;-45
2024/02/02 07:02:32;;;;;;;;;11.00;9.83;;;;;4.48;86.12;100584.38;6345972;20;1823220;-45
2024/02/02 07:05:01;;;;;;;;;11.00;7.00;;;;;5.13;82.20;100589.03;6281875;20;2752456;-45
2024/02/02 07:07:30;;;;;;;;;11.00;10.00;;;;;6.60;73.95;100598.31;6308735;20;2786205;-46
2024/02/02 07:09:58;;;;;;;;;11.00;9.00;;;;;7.47;69.47;100605.31;6277730;20;2761746;-45
2024/02/02 07:12:56;;;;;;;;;7.75;7.00;;;;;9.01;62.67;100608.56;6300768;20;1816060;-43
2024/02/02 07:15:49;;;;;;;;;9.80;8.00;;;;;10.51;54.95;100620.88;6337283;20;2751387;-45
2024/02/02 07:18:36;;;;;;;;;14.00;6.40;;;;;7.42;59.95;100616.16;6336928;20;2781536;-46
2024/02/02 07:21:11;;;;;;;;;7.80;7.20;;;;;9.41;60.84;100612.28;6301679;20;2748262;-44
2024/02/02 07:23:41;;;;;;;;;8.00;7.00;;;;;11.05;51.74;100629.06;6310804;20;2747236;-44
2024/02/02 07:26:33;;;;;;;;;9.50;7.00;;;;;10.35;52.81;100627.88;6282946;20;2758773;-44
2024/02/02 07:29:12;;;;;;;;;8.00;8.00;;;;;10.64;51.11;100626.53;6277180;20;2733773;-44
2024/02/02 07:31:47;;;;;;;;;10.00;8.00;;;;;11.21;49.73;100635.41;6280433;20;2751377;-44
2024/02/02 07:34:44;;;;;;;;;11.00;6.57;;;;;11.69;50.45;100634.88;6318522;20;1800339;-44
2024/02/02 07:37:45;;;;;;;;;12.00;9.00;;;;;11.94;48.85;100632.69;6308259;20;2775493;-44
2024/02/02 07:40:30;;;;;;;;;7.00;5.60;;;;;6.98;60.18;100617.63;6304631;20;2734783;-44
2024/02/02 07:42:58;;;;;;;;;9.50;9.00;;;;;5.17;74.75;100617.34;6310871;20;2757654;-43
2024/02/02 07:45:26;;;;;;;;;16.00;11.00;;;;;5.59;74.88;100612.72;6281760;20;2798260;-43
2024/02/02 07:47:55;;;;;;;;;10.00;6.75;;;;;5.37;76.86;100616.81;6296700;20;1815007;-44
2024/02/02 07:50:23;;;;;;;;;9.00;4.00;;;;;5.55;76.81;100615.50;6313627;20;2746152;-43
2024/02/02 07:52:51;;;;;;;;;8.00;7.00;;;;;5.46;76.57;100617.47;6278587;20;2741968;-43
2024/02/02 07:55:22;;;;;;;;;9.00;7.00;;;;;5.66;78.16;100611.66;6296755;20;1816011;-43
2024/02/02 07:57:51;;;;;;;;;9.00;7.25;;;;;5.55;76.37;100611.03;6328272;20;1815008;-43
2024/02/02 08:00:21;;;;;;;;;26.67;25.33;;;;;5.57;77.20;100611.88;6335041;20;3585669;-43
2024/02/02 08:02:52;;;;;;;;;5.83;5.67;;;;;5.85;76.85;100612.03;6323108;20;1803925;-47
2024/02/02 08:05:20;;;;;;;;;10.00;8.50;;;;;6.26;73.40;100607.34;6277485;20;2763814;-43
2024/02/02 08:07:48;;;;;;;;;7.00;3.50;;;;;6.37;74.29;100612.34;6298636;20;1820204;-43
2024/02/02 08:10:16;;;;;;;;;11.00;10.00;;;;;6.37;73.79;100610.59;6310056;20;2774359;-45
2024/02/02 08:12:44;;;;;;;;;9.00;7.50;;;;;6.49;72.76;100612.00;6281875;20;2743017;-44
2024/02/02 08:15:15;;;;;;;;;6.00;6.00;;;;;6.21;73.58;100614.59;6351305;20;2467996;-45
2024/02/02 08:17:45;;;;;;;;;8.83;7.83;;;;;6.54;72.65;100609.19;6321853;20;1806632;-48
2024/02/02 08:20:15;;;;;;;;;15.50;9.00;;;;;6.40;73.00;100614.06;6280524;20;2785378;-47
2024/02/02 08:22:43;;;;;;;;;10.00;8.00;;;;;6.23;73.69;100612.75;6282193;20;2746135;-49
2024/02/02 08:25:14;;;;;;;;;10.40;9.00;;;;;6.10;73.97;100604.22;6302865;20;2753447;-48
2024/02/02 08:27:42;;;;;;;;;13.00;8.50;;;;;6.20;73.27;100607.53;6308541;20;2764894;-47
2024/02/02 08:30:14;;;;;;;;;9.75;7.00;;;;;5.97;73.96;100607.28;6299254;20;1818991;-49
2024/02/02 08:32:44;;;;;;;;;14.00;9.50;;;;;6.16;74.08;100616.50;6309972;20;2773211;-47
2024/02/02 08:35:14;;;;;;;;;13.40;9.20;;;;;6.20;73.87;100612.84;6305150;20;2775438;-48
2024/02/02 08:37:44;;;;;;;;;13.00;8.80;;;;;5.89;74.86;100620.78;6300488;20;2763923;-47
2024/02/02 08:40:42;;;;;;;;;8.67;7.17;;;;;6.02;74.33;100621.38;6351855;20;1812846;-49
2024/02/02 08:43:15;;;;;;;;;12.00;11.50;;;;;6.30;74.59;100618.81;6278255;20;2783642;-51
2024/02/02 08:46:07;;;;;;;;;14.00;12.50;;;;;6.31;73.69;100608.06;6279182;20;2802391;-49
2024/02/02 08:48:51;;;;;;;;;10.00;9.00;;;;;6.34;74.24;100612.44;6321969;20;1804456;-49
2024/02/02 08:51:21;;;;;;;;;16.80;11.80;;;;;6.27;73.75;100618.91;6334080;20;2803408;-49
2024/02/02 08:54:33;;;;;;;;;21.33;13.50;;;;;6.82;72.23;100617.25;6300594;20;2814874;-49
2024/02/02 08:57:39;;;;;;;;;9.29;9.14;;;;;6.64;72.31;100617.81;6353017;20;1804514;-48
2024/02/02 09:00:45;;;;;;;;;8.00;4.50;;;;;6.90;71.62;100635.66;6309010;20;2752424;-50
2024/02/02 09:03:46;;;;;;;;;11.40;8.60;;;;;7.12;72.92;100622.53;6332224;20;2764901;-48
2024/02/02 09:06:39;;;;;;;;;10.00;9.00;;;;;7.34;70.19;100625.34;6310864;20;2767048;-51
2024/02/02 09:09:08;;;;;;;;;11.50;11.00;;;;;7.28;70.19;100631.78;6283485;20;2796122;-47
2024/02/02 09:11:36;;;;;;;;;9.00;9.00;;;;;6.79;71.82;100631.56;6278001;20;2748275;-50
2024/02/02 09:14:17;;;;;;;;;15.50;9.00;;;;;6.95;71.59;100631.94;6279883;20;2777404;-49
2024/02/02 09:16:52;;;;;;;;;10.00;10.00;;;;;6.84;75.20;100630.53;6275305;20;2789932;-49
2024/02/02 09:19:41;;;;;;;;;8.50;6.00;;;;;6.58;72.62;100638.41;6275957;20;2743007;-48
2024/02/02 09:22:16;;;;;;;;;13.00;9.50;;;;;7.02;71.94;100637.94;6275998;20;2785696;-49
2024/02/02 09:24:53;;;;;;;;;11.00;9.50;;;;;6.69;71.35;100640.75;6276923;20;2761769;-49
2024/02/02 09:27:35;;;;;;;;;16.00;9.00;;;;;6.48;71.85;100649.41;6276010;20;2786784;-48
2024/02/02 09:30:19;;;;;;;;;10.00;9.00;;;;;6.83;70.75;100648.34;6277521;20;2760770;-47
2024/02/02 09:32:47;;;;;;;;;13.00;9.00;;;;;6.92;71.47;100649.84;6278138;20;2769029;-50
2024/02/02 09:35:54;;;;;;;;;11.00;9.00;;;;;6.96;70.61;100643.50;6281820;20;2636739;-47
2024/02/02 09:38:25;;;;;;;;;10.50;10.00;;;;;6.76;70.71;100649.44;6305985;20;2788865;-50
2024/02/02 09:41:01;;;;;;;;;11.80;9.60;;;;;6.83;71.20;100648.34;6305538;20;2785802;-51
2024/02/02 09:44:05;;;;;;;;;10.50;9.50;;;;;6.68;70.52;100647.00;6275725;20;2779649;-54
2024/02/02 09:46:56;;;;;;;;;15.00;9.50;;;;;6.67;70.99;100645.25;6275178;20;2781650;-43
2024/02/02 09:49:49;;;;;;;;;9.00;7.75;;;;;7.10;70.47;100643.06;6295968;20;1812807;-42
2024/02/02 09:52:53;;;;;;;;;10.40;8.80;;;;;7.57;68.28;100638.81;6333526;20;2757598;-42
2024/02/02 09:55:57;;;;;;;;;17.00;11.00;;;;;7.59;67.46;100646.81;6308848;20;2795075;-42
2024/02/02 09:59:04;;;;;;;;;8.33;8.00;;;;;7.60;66.97;100653.88;6320113;20;1802406;-44
2024/02/02 10:02:33;;;;;;;;;12.50;9.00;;;;;7.39;67.97;100651.00;6275827;20;2762828;-43
2024/02/02 10:05:51;;;;;;;;;10.00;9.00;;;;;7.65;66.85;100660.81;6270030;20;2752494;-43
2024/02/02 10:08:31;;;;;;;;;12.00;7.50;;;;;7.96;65.36;100657.09;6278205;20;2763854;-43
2024/02/02 10:11:50;;;;;;;;;11.40;9.40;;;;;7.93;64.88;100657.19;6303306;20;2751433;-44
2024/02/02 10:14:39;;;;;;;;;11.50;9.00;;;;;7.94;65.25;100650.91;6275227;20;2778597;-44
2024/02/02 10:17:16;;;;;;;;;10.00;8.50;;;;;8.20;64.72;100647.31;6279302;20;2754486;-46
2024/02/02 10:20:40;;;;;;;;;5.00;4.50;;;;;8.32;63.37;100652.22;6276629;20;2748205;-43
2024/02/02 10:24:21;;;;;;;;;13.00;10.00;;;;;8.67;62.10;100643.84;6273813;20;2788874;-43
2024/02/02 10:27:29;;;;;;;;;8.50;8.50;;;;;8.66;61.55;100642.06;6276017;20;2738920;-45
2024/02/02 10:30:27;;;;;;;;;4.00;4.00;;;;;8.59;60.95;100640.56;6311698;20;2753428;-46
2024/02/02 10:33:28;;;;;;;;;9.50;5.00;;;;;8.25;62.46;100637.31;6282121;20;2756625;-44
2024/02/02 10:36:18;;;;;;;;;5.00;5.00;;;;;8.44;61.92;100637.53;6285051;20;2747213;-45
2024/02/02 10:39:35;;;;;;;;;5.00;4.00;;;;;8.71;60.90;100640.09;6284737;20;2749365;-44
2024/02/02 10:42:57;;;;;;;;;6.00;6.00;;;;;8.34;61.47;100636.97;6283104;20;2746115;-44
2024/02/02 10:45:52;;;;;;;;;5.80;5.80;;;;;8.57;60.16;100638.81;6306201;20;2731672;-43
2024/02/02 10:48:48;;;;;;;;;0.00;0.00;;;;;8.18;61.12;100629.56;6329503;20;1810739;-43
2024/02/02 10:51:44;;;;;;;;;6.00;6.00;;;;;8.33;60.08;100629.88;6315142;20;2739880;-44
2024/02/02 10:55:27;;;;;;;;;8.00;5.83;;;;;8.42;59.52;100631.34;6319148;20;1808653;-44
2024/02/02 10:58:22;;;;;;;;;8.00;8.00;;;;;8.74;58.36;100626.56;6282586;20;2739892;-43
2024/02/02 11:01:59;;;;;;;;;12.00;9.00;;;;;8.46;59.28;100624.97;6308631;20;2775673;-44
2024/02/02 11:05:02;;;;;;;;;11.00;9.50;;;;;8.72;60.08;100625.78;6280063;20;2779588;-44
2024/02/02 11:07:58;;;;;;;;;13.00;10.00;;;;;8.65;58.75;100634.97;6277895;20;2784693;-42
2024/02/02 11:10:38;;;;;;;;;11.40;9.60;;;;;9.04;58.57;100626.31;6304293;20;2796156;-44
2024/02/02 11:13:39;;;;;;;;;6.50;5.25;;;;;8.99;57.99;100635.41;6299526;20;1805611;-42
2024/02/02 11:16:48;;;;;;;;;7.00;7.00;;;;;9.23;56.90;100628.19;6311848;20;2736865;-43
2024/02/02 11:19:39;;;;;;;;;8.00;8.00;;;;;9.47;58.00;100629.91;6284774;20;2744203;-43
2024/02/02 11:22:29;;;;;;;;;8.00;8.00;;;;;9.24;57.36;100623.69;6277874;20;2742050;-43
2024/02/02 11:25:21;;;;;;;;;9.00;7.50;;;;;9.13;55.94;100631.28;6280865;20;2743032;-43
2024/02/02 11:28:13;;;;;;;;;9.50;7.50;;;;;8.89;56.19;100617.94;6280322;20;2760765;-43
2024/02/02 11:31:05;;;;;;;;;10.50;8.50;;;;;9.21;57.01;100615.78;6276069;20;2771121;-42
2024/02/02 11:34:13;;;;;;;;;11.00;8.00;;;;;8.85;56.09;100616.34;6281924;20;2771117;-43
2024/02/02 11:37:24;;;;;;;;;10.00;7.80;;;;;8.86;57.59;100611.84;6306676;20;2760742;-42
2024/02/02 11:40:00;;;;;;;;;12.50;9.50;;;;;9.31;56.03;100617.16;6305986;20;2780499;-42
2024/02/02 11:42:30;;;;;;;;;11.00;8.00;;;;;9.33;54.58;100612.59;6279569;20;2764883;-41